createdAt,value
2023-05-04T00:01:22.946Z,102514.94
2023-05-04T00:04:23.915Z,102514.91
2023-05-04T00:07:24.987Z,102517.31
2023-05-04T00:10:25.873Z,102508.91
2023-05-04T00:13:27.294Z,102502.31
2023-05-04T00:16:27.921Z,102503.81
2023-05-04T00:19:28.952Z,102503.66
2023-05-04T00:22:29.890Z,102506.66
2023-05-04T00:25:30.963Z,102508.56
2023-05-04T00:28:31.894Z,102508.72
2023-05-04T00:31:32.992Z,102496.81
2023-05-04T00:34:33.896Z,102498.59
2023-05-04T00:37:34.931Z,102497.19
2023-05-04T00:40:35.920Z,102498.09
2023-05-04T00:43:36.964Z,102499.34
2023-05-04T00:46:37.950Z,102510.16
2023-05-04T00:49:39.917Z,102503.16
2023-05-04T00:52:40.905Z,102494.44
2023-05-04T00:55:41.914Z,102496.94
2023-05-04T00:58:42.905Z,102509.00
2023-05-04T01:01:43.923Z,102507.03
2023-05-04T01:04:45.879Z,102505.16
2023-05-04T01:08:05.949Z,102512.22
2023-05-04T01:11:28.871Z,102504.09
2023-05-04T01:14:39.232Z,102503.16
2023-05-04T01:17:39.917Z,102498.63
2023-05-04T01:20:40.960Z,102491.16
2023-05-04T01:23:41.911Z,102490.28
2023-05-04T01:26:43.946Z,102492.19
2023-05-04T01:29:44.872Z,102493.09
2023-05-04T01:32:45.947Z,102490.59
2023-05-04T01:35:46.910Z,102496.00
2023-05-04T01:38:47.935Z,102497.44
2023-05-04T01:41:48.880Z,102494.25
2023-05-04T01:44:49.932Z,102499.50
2023-05-04T01:47:50.964Z,102500.34
2023-05-04T01:50:51.923Z,102494.88
2023-05-04T01:53:52.870Z,102491.53
2023-05-04T01:56:53.952Z,102484.38
2023-05-04T01:59:54.866Z,102489.78
2023-05-04T02:03:08.982Z,102490.13
2023-05-04T02:06:09.894Z,102491.53
2023-05-04T02:09:10.906Z,102501.41
2023-05-04T02:12:11.881Z,102500.78
2023-05-04T02:15:13.278Z,102504.06
2023-05-04T02:18:13.902Z,102504.28
2023-05-04T02:21:15.906Z,102502.38
2023-05-04T02:24:16.883Z,102507.16
2023-05-04T02:27:17.907Z,102508.25
2023-05-04T02:30:18.899Z,102509.69
2023-05-04T02:33:19.915Z,102519.88
2023-05-04T02:36:20.881Z,102516.13
2023-05-04T02:39:21.915Z,102516.84
2023-05-04T02:42:22.890Z,102526.38
2023-05-04T02:45:23.940Z,102510.25
2023-05-04T02:48:24.909Z,102516.69
2023-05-04T02:51:25.931Z,102511.28
2023-05-04T02:54:26.862Z,102516.38
2023-05-04T02:57:27.930Z,102516.69
2023-05-04T03:00:28.868Z,102524.16
2023-05-04T03:03:29.915Z,102538.66
2023-05-04T03:06:30.864Z,102541.53
2023-05-04T03:09:32.921Z,102532.63
2023-05-04T03:12:33.900Z,102535.16
2023-05-04T03:15:34.976Z,102525.44
2023-05-04T03:21:53.918Z,102536.44
2023-05-04T03:24:54.857Z,102529.50
2023-05-04T03:27:56.898Z,102540.06
2023-05-04T03:30:57.874Z,102539.19
2023-05-04T03:33:58.914Z,102533.97
2023-05-04T03:36:59.880Z,102544.06
2023-05-04T03:40:00.909Z,102544.34
2023-05-04T03:43:01.847Z,102538.66
2023-05-04T03:46:03.944Z,102536.78
2023-05-04T03:49:04.863Z,102548.13
2023-05-04T03:52:05.899Z,102539.97
2023-05-04T03:55:06.881Z,102536.44
2023-05-04T03:58:07.918Z,102537.53
2023-05-04T04:01:09.892Z,102539.28
2023-05-04T04:04:10.929Z,102530.59
2023-05-04T04:07:11.871Z,102540.22
2023-05-04T04:10:12.908Z,102544.88
2023-05-04T04:13:13.975Z,102545.78
2023-05-04T04:16:15.380Z,102550.44
2023-05-04T04:19:15.840Z,102552.94
2023-05-04T04:22:16.906Z,102559.03
2023-05-04T04:25:17.848Z,102557.75
2023-05-04T04:28:18.902Z,102549.53
2023-05-04T04:31:19.950Z,102551.94
2023-05-04T04:34:20.915Z,102540.38
2023-05-04T04:37:21.846Z,102546.13
2023-05-04T04:40:22.931Z,102552.69
2023-05-04T04:43:23.863Z,102556.66
2023-05-04T04:46:25.020Z,102551.69
2023-05-04T04:49:25.856Z,102545.44
2023-05-04T04:52:26.880Z,102555.97
2023-05-04T04:55:27.863Z,102565.34
2023-05-04T04:58:28.908Z,102563.28
2023-05-04T05:01:30.027Z,102567.28
2023-05-04T05:04:31.925Z,102567.44
2023-05-04T05:07:32.858Z,102570.69
2023-05-04T05:10:33.890Z,102578.75
2023-05-04T05:13:34.864Z,102573.78
2023-05-04T05:16:36.161Z,102590.69
2023-05-04T05:19:36.844Z,102592.78
2023-05-04T05:22:37.891Z,102601.53
2023-05-04T05:25:39.387Z,102593.72
2023-05-04T05:28:39.899Z,102593.50
2023-05-04T05:31:40.858Z,102582.59
2023-05-04T05:34:45.933Z,102591.84
2023-05-04T05:37:46.873Z,102579.81
2023-05-04T05:40:47.904Z,102564.78
2023-05-04T05:43:48.832Z,102562.53
2023-05-04T05:46:49.904Z,102567.09
2023-05-04T05:49:50.867Z,102564.03
2023-05-04T05:52:51.912Z,102564.63
2023-05-04T05:55:52.843Z,102564.03
2023-05-04T05:58:53.918Z,102566.19
2023-05-04T06:01:54.853Z,102554.47
2023-05-04T06:04:56.065Z,102568.03
2023-05-04T06:07:56.845Z,102561.63
2023-05-04T06:10:57.878Z,102561.03
2023-05-04T06:13:58.844Z,102574.22
2023-05-04T06:16:59.958Z,102579.38
2023-05-04T06:20:00.863Z,102578.88
2023-05-04T06:23:01.885Z,102592.59
2023-05-04T06:26:02.834Z,102594.22
2023-05-04T06:29:03.877Z,102601.94
2023-05-04T06:32:05.150Z,102609.75
2023-05-04T06:35:09.016Z,102610.25
2023-05-04T06:38:09.873Z,102606.94
2023-05-04T06:41:10.872Z,102609.25
2023-05-04T06:44:11.866Z,102612.91
2023-05-04T06:47:13.897Z,102611.09
2023-05-04T06:50:15.861Z,102620.72
2023-05-04T06:53:23.869Z,102611.34
2023-05-04T06:56:24.861Z,102614.06
2023-05-04T06:59:26.871Z,102615.66
2023-05-04T07:02:27.845Z,102612.22
2023-05-04T07:05:28.884Z,102615.81
2023-05-04T07:08:29.819Z,102610.84
2023-05-04T07:11:30.901Z,102614.50
2023-05-04T07:14:31.811Z,102609.75
2023-05-04T07:17:33.019Z,102609.97
2023-05-04T07:20:33.811Z,102614.19
2023-05-04T07:23:34.884Z,102613.56
2023-05-04T07:26:35.820Z,102617.78
2023-05-04T07:29:36.890Z,102608.66
2023-05-04T07:32:38.122Z,102611.16
2023-05-04T07:35:39.034Z,102596.53
2023-05-04T07:38:39.812Z,102601.94
2023-05-04T07:41:40.902Z,102600.50
2023-05-04T07:44:41.844Z,102595.56
2023-05-04T07:47:42.989Z,102599.25
2023-05-04T07:50:43.842Z,102601.31
2023-05-04T07:53:44.851Z,102599.41
2023-05-04T07:56:45.843Z,102591.91
2023-05-04T07:59:46.871Z,102605.19
2023-05-04T08:02:47.891Z,102595.41
2023-05-04T08:05:48.872Z,102604.81
2023-05-04T08:08:52.747Z,102597.16
2023-05-04T08:11:53.861Z,102593.13
2023-05-04T08:14:54.830Z,102588.56
2023-05-04T08:17:55.982Z,102582.34
2023-05-04T08:20:57.809Z,102585.59
2023-05-04T08:23:58.889Z,102587.13
2023-05-04T08:27:07.209Z,102581.56
2023-05-04T08:30:11.858Z,102569.16
2023-05-04T08:33:12.827Z,102576.16
2023-05-04T08:36:13.878Z,102578.88
2023-05-04T08:39:14.837Z,102569.41
2023-05-04T08:42:15.875Z,102572.34
2023-05-04T08:45:16.854Z,102575.69
2023-05-04T08:48:17.881Z,102579.19
2023-05-04T08:51:19.830Z,102586.03
2023-05-04T08:54:22.892Z,102586.97
2023-05-04T08:57:23.832Z,102585.38
2023-05-04T09:00:24.898Z,102589.69
2023-05-04T09:03:26.872Z,102586.50
2023-05-04T09:06:27.859Z,102596.50
2023-05-04T09:09:28.848Z,102593.69
2023-05-04T09:12:29.943Z,102592.84
2023-05-04T09:15:30.829Z,102588.44
2023-05-04T09:18:32.065Z,102595.91
2023-05-04T09:21:41.799Z,102598.22
2023-05-04T09:24:42.860Z,102598.16
2023-05-04T09:27:43.821Z,102604.00
2023-05-04T09:30:44.914Z,102596.13
2023-05-04T09:33:45.823Z,102604.47
2023-05-04T09:36:46.848Z,102609.44
2023-05-04T09:39:47.836Z,102607.56
2023-05-04T09:42:48.872Z,102615.94
2023-05-04T09:45:55.866Z,102610.69
2023-05-04T09:49:06.835Z,102623.28
2023-05-04T09:52:09.101Z,102618.06
2023-05-04T09:55:09.864Z,102612.91
2023-05-04T09:58:10.806Z,102617.47
2023-05-04T10:01:13.926Z,102617.06
2023-05-04T10:04:14.810Z,102622.47
2023-05-04T10:07:18.837Z,102610.69
2023-05-04T10:10:19.815Z,102612.88
2023-05-04T10:13:20.845Z,102617.28
2023-05-04T10:16:39.856Z,102612.28
2023-05-04T10:19:49.917Z,102612.16
2023-05-04T10:22:53.859Z,102617.56
2023-05-04T10:26:10.858Z,102620.25
2023-05-04T10:29:23.114Z,102616.06
2023-05-04T10:32:35.927Z,102608.69
2023-05-04T10:35:36.815Z,102620.06
2023-05-04T10:38:49.856Z,102615.53
2023-05-04T10:41:50.792Z,102617.72
2023-05-04T10:45:05.056Z,102614.63
2023-05-04T10:48:11.953Z,102604.81
2023-05-04T10:51:12.860Z,102613.13
2023-05-04T10:54:13.793Z,102609.59
2023-05-04T10:57:15.851Z,102605.03
2023-05-04T11:00:16.834Z,102609.91
2023-05-04T11:03:18.998Z,102611.13
2023-05-04T11:06:28.806Z,102602.44
2023-05-04T11:09:30.013Z,102604.44
2023-05-04T11:12:30.819Z,102604.16
2023-05-04T11:15:31.853Z,102606.06
2023-05-04T11:18:48.784Z,102604.13
2023-05-04T11:21:50.014Z,102598.03
2023-05-04T11:24:57.806Z,102599.94
2023-05-04T11:27:58.938Z,102598.50
2023-05-04T11:30:59.829Z,102587.25
2023-05-04T11:34:00.846Z,102601.34
2023-05-04T11:37:01.806Z,102598.59
2023-05-04T11:40:02.831Z,102598.56
2023-05-04T11:43:03.812Z,102599.44
2023-05-04T11:46:07.966Z,102596.47
2023-05-04T11:49:08.794Z,102605.91
2023-05-04T11:52:18.836Z,102597.69
2023-05-04T11:55:20.825Z,102603.25
2023-05-04T11:58:22.823Z,102597.16
2023-05-04T12:01:24.785Z,102598.59
2023-05-04T12:04:25.847Z,102601.03
2023-05-04T12:07:26.989Z,102595.94
2023-05-04T12:10:37.839Z,102594.91
2023-05-04T12:13:38.803Z,102595.59
2023-05-04T12:16:39.916Z,102600.34
2023-05-04T12:19:40.813Z,102607.28
2023-05-04T12:22:45.089Z,102598.91
2023-05-04T12:25:57.361Z,102598.59
2023-05-04T12:28:58.847Z,102599.59
2023-05-04T12:31:59.821Z,102593.84
2023-05-04T12:35:00.834Z,102595.66
2023-05-04T12:38:01.794Z,102595.56
2023-05-04T12:41:05.906Z,102594.91
2023-05-04T12:44:06.788Z,102591.03
2023-05-04T12:47:07.830Z,102593.31
2023-05-04T12:50:11.753Z,102593.47
2023-05-04T12:53:13.828Z,102580.47
2023-05-04T12:56:14.800Z,102587.38
2023-05-04T12:59:15.843Z,102588.75
2023-05-04T13:02:16.824Z,102581.25
2023-05-04T13:05:17.858Z,102581.41
2023-05-04T13:08:18.811Z,102581.16
2023-05-04T13:11:19.839Z,102580.72
2023-05-04T13:14:20.824Z,102583.88
2023-05-04T13:17:21.871Z,102586.53
2023-05-04T13:20:22.802Z,102579.16
2023-05-04T13:23:23.980Z,102583.84
2023-05-04T13:26:24.821Z,102572.16
2023-05-04T13:29:25.884Z,102571.63
2023-05-04T13:32:26.788Z,102567.94
2023-05-04T13:35:27.851Z,102556.75
2023-05-04T13:38:28.760Z,102558.19
2023-05-04T13:41:29.836Z,102560.09
2023-05-04T13:44:30.778Z,102557.66
2023-05-04T13:47:31.849Z,102561.63
2023-05-04T13:50:32.777Z,102551.28
2023-05-04T13:53:33.842Z,102551.84
2023-05-04T13:56:34.776Z,102538.56
2023-05-04T13:59:35.856Z,102534.13
2023-05-04T14:02:36.850Z,102536.41
2023-05-04T14:05:37.829Z,102530.72
2023-05-04T14:08:38.785Z,102526.00
2023-05-04T14:11:39.812Z,102523.69
2023-05-04T14:14:40.785Z,102522.50
2023-05-04T14:17:41.813Z,102525.47
2023-05-04T14:20:42.769Z,102510.63
2023-05-04T14:23:43.976Z,102533.84
2023-05-04T14:26:47.781Z,102531.06
2023-05-04T14:29:48.808Z,102516.59
2023-05-04T14:32:50.848Z,102515.81
2023-05-04T14:35:52.811Z,102516.22
2023-05-04T14:38:54.763Z,102508.25
2023-05-04T14:41:55.809Z,102510.25
2023-05-04T14:44:56.799Z,102511.81
2023-05-04T14:47:57.848Z,102505.38
2023-05-04T14:50:58.769Z,102501.00
2023-05-04T14:53:59.806Z,102502.91
2023-05-04T14:57:00.869Z,102501.00
2023-05-04T15:00:01.807Z,102500.78
2023-05-04T15:03:02.843Z,102500.28
2023-05-04T15:06:03.815Z,102508.25
2023-05-04T15:09:04.764Z,102501.28
2023-05-04T15:12:05.831Z,102505.53
2023-05-04T15:15:06.771Z,102510.09
2023-05-04T15:18:07.913Z,102502.91
2023-05-04T15:21:08.790Z,102496.53
2023-05-04T15:24:10.096Z,102497.66
2023-05-04T15:27:10.749Z,102498.38
2023-05-04T15:30:11.820Z,102503.28
2023-05-04T15:33:12.820Z,102500.13
2023-05-04T15:36:18.792Z,102492.38
2023-05-04T15:39:19.767Z,102484.56
2023-05-04T15:42:20.810Z,102482.13
2023-05-04T15:45:21.772Z,102487.91
2023-05-04T15:48:22.805Z,102489.13
2023-05-04T15:51:25.762Z,102488.94
2023-05-04T15:54:26.803Z,102490.56
2023-05-04T15:57:27.757Z,102488.41
2023-05-04T16:00:28.777Z,102479.16
2023-05-04T16:03:29.817Z,102483.03
2023-05-04T16:06:30.816Z,102480.72
2023-05-04T16:09:33.792Z,102474.75
2023-05-04T16:12:34.831Z,102477.84
2023-05-04T16:15:35.753Z,102478.44
2023-05-04T16:18:36.995Z,102481.59
2023-05-04T16:21:37.735Z,102470.56
2023-05-04T16:24:38.954Z,102473.19
2023-05-04T16:27:39.763Z,102475.47
2023-05-04T16:30:40.819Z,102471.25
2023-05-04T16:33:41.750Z,102472.78
2023-05-04T16:36:42.810Z,102471.66
2023-05-04T16:39:43.748Z,102462.72
2023-05-04T16:42:44.829Z,102456.09
2023-05-04T16:45:45.776Z,102468.28
2023-05-04T16:48:46.900Z,102472.59
2023-05-04T16:51:47.745Z,102466.72
2023-05-04T16:54:48.816Z,102466.66
2023-05-04T16:57:49.761Z,102475.31
2023-05-04T17:00:51.081Z,102469.56
2023-05-04T17:03:51.880Z,102462.25
2023-05-04T17:06:52.827Z,102464.81
2023-05-04T17:09:53.784Z,102466.06
2023-05-04T17:12:54.916Z,102475.25
2023-05-04T17:15:55.804Z,102472.50
2023-05-04T17:18:56.773Z,102461.19
2023-05-04T17:21:57.769Z,102472.81
2023-05-04T17:24:59.003Z,102469.84
2023-05-04T17:27:59.784Z,102472.34
2023-05-04T17:31:00.791Z,102471.50
2023-05-04T17:34:01.758Z,102484.41
2023-05-04T17:37:02.808Z,102488.56
2023-05-04T17:40:03.747Z,102491.25
2023-05-04T17:43:04.811Z,102495.59
2023-05-04T17:46:05.768Z,102494.78
2023-05-04T17:49:06.789Z,102499.53
2023-05-04T17:52:07.750Z,102498.91
2023-05-04T17:55:08.811Z,102504.69
2023-05-04T17:58:09.718Z,102510.41
2023-05-04T18:01:10.778Z,102515.00
2023-05-04T18:04:11.753Z,102514.63
2023-05-04T18:07:12.800Z,102522.72
2023-05-04T18:10:13.724Z,102519.72
2023-05-04T18:13:14.847Z,102528.78
2023-05-04T18:16:15.767Z,102528.53
2023-05-04T18:19:16.799Z,102534.06
2023-05-04T18:22:17.730Z,102539.09
2023-05-04T18:25:19.009Z,102553.59
2023-05-04T18:28:22.748Z,102555.03
2023-05-04T18:31:23.844Z,102554.94
2023-05-04T18:34:24.727Z,102564.28
2023-05-04T18:37:25.790Z,102544.53
2023-05-04T18:40:26.764Z,102572.47
2023-05-04T18:43:27.795Z,102571.09
2023-05-04T18:46:28.736Z,102580.53
2023-05-04T18:49:29.793Z,102581.09
2023-05-04T18:52:30.834Z,102580.03
2023-05-04T18:55:31.777Z,102574.75
2023-05-04T18:58:32.753Z,102583.88
2023-05-04T19:01:34.802Z,102587.31
2023-05-04T19:04:35.719Z,102598.34
2023-05-04T19:07:36.786Z,102588.56
2023-05-04T19:10:38.719Z,102591.19
2023-05-04T19:13:39.785Z,102591.22
2023-05-04T19:16:14.102Z,102596.31
2023-05-04T19:18:41.424Z,102602.75
2023-05-04T19:21:08.568Z,102592.44
2023-05-04T19:23:35.856Z,102595.66
2023-05-04T19:26:04.246Z,102604.81
2023-05-04T19:28:31.428Z,102604.66
2023-05-04T19:30:58.785Z,102614.13
2023-05-04T19:33:36.360Z,102622.31
2023-05-04T19:36:08.300Z,102616.38
2023-05-04T19:38:35.870Z,102616.38
2023-05-04T19:41:03.101Z,102626.34
2023-05-04T19:43:30.567Z,102626.84
2023-05-04T19:45:57.841Z,102625.44
2023-05-04T19:48:25.020Z,102628.41
2023-05-04T19:50:52.250Z,102637.75
2023-05-04T19:53:19.415Z,102639.50
2023-05-04T19:55:46.670Z,102633.34
2023-05-04T19:58:13.844Z,102642.47
2023-05-04T20:00:41.028Z,102647.44
2023-05-04T20:03:08.414Z,102640.75
2023-05-04T20:05:35.686Z,102639.75
2023-05-04T20:08:05.136Z,102640.31
2023-05-04T20:10:32.680Z,102648.41
2023-05-04T20:12:59.892Z,102658.66
2023-05-04T20:15:27.156Z,102653.94
2023-05-04T20:17:54.368Z,102652.69
2023-05-04T20:20:22.681Z,102652.84
2023-05-04T20:22:52.320Z,102665.38
2023-05-04T20:25:20.119Z,102653.06
2023-05-04T20:27:48.840Z,102660.09
2023-05-04T20:30:16.015Z,102667.94
2023-05-04T20:32:44.290Z,102665.38
2023-05-04T20:35:11.549Z,102672.19
2023-05-04T20:37:38.682Z,102668.19
2023-05-04T20:40:06.642Z,102673.31
2023-05-04T20:42:34.005Z,102675.25
2023-05-04T20:45:01.174Z,102679.44
2023-05-04T20:47:28.689Z,102672.50
2023-05-04T20:49:56.733Z,102678.22
2023-05-04T20:52:24.813Z,102683.38
2023-05-04T20:54:52.066Z,102685.44
2023-05-04T20:57:19.340Z,102679.97
2023-05-04T20:59:46.581Z,102687.06
2023-05-04T21:02:13.694Z,102690.75
2023-05-04T21:04:42.628Z,102690.00
2023-05-04T21:07:09.795Z,102691.53
2023-05-04T21:09:37.002Z,102702.75
2023-05-04T21:12:04.300Z,102700.69
2023-05-04T21:14:31.465Z,102702.88
2023-05-04T21:16:58.630Z,102703.84
2023-05-04T21:19:25.783Z,102696.78
2023-05-04T21:21:53.285Z,102703.50
2023-05-04T21:24:20.852Z,102708.09
2023-05-04T21:26:48.657Z,102712.44
2023-05-04T21:29:15.928Z,102710.38
2023-05-04T21:31:43.216Z,102718.56
2023-05-04T21:34:10.524Z,102712.44
2023-05-04T21:36:39.001Z,102716.28
2023-05-04T21:39:06.486Z,102716.19
2023-05-04T21:41:33.764Z,102719.91
2023-05-04T21:44:01.031Z,102720.34
2023-05-04T21:46:28.275Z,102720.91
2023-05-04T21:48:55.499Z,102716.53
2023-05-04T21:51:22.802Z,102716.78
2023-05-04T21:53:49.960Z,102716.00
2023-05-04T21:56:17.094Z,102722.81
2023-05-04T21:58:44.269Z,102713.19
2023-05-04T22:01:15.000Z,102719.13
2023-05-04T22:03:42.402Z,102700.50
2023-05-04T22:06:09.625Z,102727.13
2023-05-04T22:08:37.324Z,102717.41
2023-05-04T22:11:04.558Z,102725.19
2023-05-04T22:13:31.760Z,102725.94
2023-05-04T22:15:58.962Z,102716.69
2023-05-04T22:18:26.130Z,102713.88
2023-05-04T22:20:53.450Z,102713.38
2023-05-04T22:23:20.706Z,102721.56
2023-05-04T22:25:47.912Z,102714.84
2023-05-04T22:28:15.304Z,102721.81
2023-05-04T22:30:42.503Z,102726.59
2023-05-04T22:33:09.660Z,102723.72
2023-05-04T22:35:36.954Z,102725.84
2023-05-04T22:38:05.071Z,102721.22
2023-05-04T22:40:32.298Z,102720.25
2023-05-04T22:42:59.461Z,102726.44
2023-05-04T22:45:26.644Z,102729.94
2023-05-04T22:47:53.905Z,102721.72
2023-05-04T22:50:21.151Z,102732.06
2023-05-04T22:52:48.422Z,102736.25
2023-05-04T22:55:15.623Z,102721.88
2023-05-04T22:57:42.839Z,102730.31
2023-05-04T23:00:10.731Z,102727.94
2023-05-04T23:02:38.321Z,102729.34
2023-05-04T23:05:06.238Z,102737.44
2023-05-04T23:07:33.404Z,102727.94
2023-05-04T23:10:00.742Z,102741.28
2023-05-04T23:12:28.016Z,102728.22
2023-05-04T23:14:55.181Z,102727.78
2023-05-04T23:17:22.564Z,102729.19
2023-05-04T23:19:49.901Z,102738.25
2023-05-04T23:22:17.191Z,102734.75
2023-05-04T23:24:44.561Z,102727.13
2023-05-04T23:27:11.760Z,102733.34
2023-05-04T23:29:38.962Z,102727.44
2023-05-04T23:32:06.465Z,102732.84
2023-05-04T23:34:33.882Z,102739.34
2023-05-04T23:37:01.221Z,102733.63
2023-05-04T23:39:28.376Z,102729.84
2023-05-04T23:41:55.572Z,102732.53
2023-05-04T23:44:22.857Z,102723.94
2023-05-04T23:46:50.056Z,102735.72
2023-05-04T23:49:17.347Z,102733.81
2023-05-04T23:51:44.559Z,102735.53
2023-05-04T23:54:11.725Z,102737.00
2023-05-04T23:56:38.913Z,102733.59
2023-05-04T23:59:06.095Z,102737.78
